Time;durP1;ratioP1;P1;durP2;ratioP2;P2;SDS_P1;SDS_P2;PMS_P1;PMS_P2;Temp;Humidity;BMP_temperature;BMP_pressure;BME280_temperature;BME280_humidity;BME280_pressure;Samples;Min_cycle;Max_cycle;Signal;HPM_P1;HPM_P2
2021/10/09 00:00:04;;;;;;;13.73;12.20;;;;;;;8.35;90.13;102168.28;682701;28;1243;-52
2021/10/09 00:00:25;;;;;;;14.05;11.95;;;;;;;8.26;90.82;102165.41;681892;28;3596;-55
2021/10/09 00:00:45;;;;;;;13.40;12.00;;;;;;;8.35;90.71;102172.63;681225;28;3661;-54
2021/10/09 00:01:06;;;;;;;13.70;12.38;;;;;;;8.48;90.67;102166.94;679430;28;4944;-53
2021/10/09 00:01:26;;;;;;;13.47;12.07;;;;;;;8.61;89.97;102164.66;682085;28;1548;-55
2021/10/09 00:01:47;;;;;;;13.13;11.73;;;;;;;8.62;89.17;102161.22;682279;28;1124;-52
2021/10/09 00:02:08;;;;;;;13.65;12.25;;;;;;;8.44;88.72;102166.78;682739;28;1121;-55
2021/10/09 00:02:29;;;;;;;14.05;12.13;;;;;;;8.33;89.59;102166.47;682179;28;1204;-57
2021/10/09 00:02:49;;;;;;;13.90;12.15;;;;;;;8.26;90.13;102162.78;681243;28;1131;-53
2021/10/09 00:03:09;;;;;;;14.70;12.90;;;;;;;8.23;90.05;102169.66;682426;28;1187;-54
2021/10/09 00:03:30;;;;;;;14.20;12.70;;;;;;;8.16;91.22;102164.25;682133;28;3339;-56
2021/10/09 00:03:51;;;;;;;13.37;11.97;;;;;;;8.27;90.71;102163.69;682009;28;4528;-55
2021/10/09 00:04:12;;;;;;;14.30;11.70;;;;;;;8.41;90.62;102161.47;681496;28;1800;-53
2021/10/09 00:04:32;;;;;;;12.93;11.60;;;;;;;8.51;89.89;102160.91;681724;28;1236;-55
2021/10/09 00:04:52;;;;;;;13.30;11.87;;;;;;;8.50;88.95;102159.16;682035;28;1303;-56
2021/10/09 00:05:13;;;;;;;13.95;12.07;;;;;;;8.38;89.34;102167.47;681893;28;1295;-52
2021/10/09 00:05:33;;;;;;;13.57;11.93;;;;;;;8.31;90.19;102162.94;682513;28;1302;-56
2021/10/09 00:05:54;;;;;;;13.90;12.50;;;;;;;8.29;89.67;102156.78;682933;28;1121;-53
2021/10/09 00:06:14;;;;;;;13.73;12.13;;;;;;;8.34;89.98;102158.69;682516;28;1244;-56
2021/10/09 00:06:35;;;;;;;14.48;12.27;;;;;;;8.39;90.06;102161.44;684277;28;1327;-56
2021/10/09 00:06:55;;;;;;;13.52;12.13;;;;;;;8.39;90.04;102160.53;684003;28;4435;-54
2021/10/09 00:07:16;;;;;;;13.83;11.83;;;;;;;8.42;90.41;102161.53;684028;28;1397;-57
2021/10/09 00:07:36;;;;;;;13.00;11.57;;;;;;;8.47;89.94;102159.97;683512;28;1237;-55
2021/10/09 00:07:57;;;;;;;13.18;11.77;;;;;;;8.44;89.23;102158.94;682379;28;1291;-55
2021/10/09 00:08:18;;;;;;;13.27;11.88;;;;;;;8.28;90.17;102157.63;682567;28;1121;-56
2021/10/09 00:08:38;;;;;;;13.38;11.98;;;;;;;8.24;90.06;102154.06;682022;28;1211;-52
2021/10/09 00:08:59;;;;;;;13.85;12.45;;;;;;;8.23;90.03;102160.09;682838;28;1072;-59
2021/10/09 00:09:20;;;;;;;13.90;12.40;;;;;;;8.26;90.36;102154.97;682751;28;1228;-54
2021/10/09 00:09:41;;;;;;;13.85;12.25;;;;;;;8.21;90.16;102159.19;682174;28;1243;-54
2021/10/09 00:10:05;;;;;;;14.23;12.40;;;;;;;8.25;90.18;102157.53;682101;28;4506;-55
2021/10/09 00:10:27;;;;;;;13.07;11.48;;;;;;;8.35;90.18;102154.38;681949;28;2082;-52
2021/10/09 00:10:48;;;;;;;12.77;11.27;;;;;;;8.45;90.34;102156.41;681077;28;1283;-54
2021/10/09 00:11:43;;;;;;;13.05;11.65;;;;;;;8.40;89.70;102163.19;679035;29;1113;-54
2021/10/09 00:11:56;;;;;;;14.13;12.20;;;;;;;8.40;89.67;102157.97;679337;28;1428;-53
2021/10/09 00:12:16;;;;;;;13.77;12.10;;;;;;;8.35;89.72;102160.47;681027;28;1139;-55
2021/10/09 00:12:37;;;;;;;14.73;12.07;;;;;;;8.43;89.52;102158.09;679451;28;1849;-53
2021/10/09 00:12:57;;;;;;;13.93;12.23;;;;;;;8.38;89.13;102153.56;679069;28;4560;-57
2021/10/09 00:13:18;;;;;;;14.57;12.73;;;;;;;8.33;89.77;102149.13;681947;28;3035;-57
2021/10/09 00:13:38;;;;;;;13.82;12.32;;;;;;;8.33;89.84;102156.94;681751;28;3672;-53
2021/10/09 00:14:00;;;;;;;13.53;12.17;;;;;;;8.30;89.99;102159.44;682269;28;1286;-53
2021/10/09 00:14:20;;;;;;;13.52;11.77;;;;;;;8.42;89.75;102153.72;682514;28;1942;-56
2021/10/09 00:14:41;;;;;;;15.05;12.10;;;;;;;8.47;89.48;102156.47;681975;28;1204;-56
2021/10/09 00:15:03;;;;;;;13.93;11.80;;;;;;;8.43;89.42;102155.47;685052;28;1278;-56
2021/10/09 00:15:24;;;;;;;13.30;11.90;;;;;;;8.39;89.42;102157.94;684649;28;1565;-55
2021/10/09 00:15:44;;;;;;;13.60;12.20;;;;;;;8.30;89.90;102153.34;681191;28;1291;-53
2021/10/09 00:16:05;;;;;;;14.30;12.30;;;;;;;8.35;89.92;102156.97;681156;28;4352;-55
2021/10/09 00:16:25;;;;;;;13.40;11.87;;;;;;;8.43;90.12;102158.09;682507;28;1426;-53
2021/10/09 00:16:46;;;;;;;13.95;12.45;;;;;;;8.47;89.64;102159.97;680800;28;2576;-56
2021/10/09 00:17:08;;;;;;;13.25;11.93;;;;;;;8.54;88.93;102152.31;679531;28;1411;-55
2021/10/09 00:17:30;;;;;;;13.65;12.20;;;;;;;8.63;88.56;102152.56;679998;28;1371;-55
2021/10/09 00:17:50;;;;;;;13.77;12.05;;;;;;;8.54;88.15;102157.53;681470;28;1268;-52
2021/10/09 00:18:10;;;;;;;14.02;11.90;;;;;;;8.38;88.61;102159.66;681877;28;1267;-56
2021/10/09 00:18:31;;;;;;;14.93;12.13;;;;;;;8.30;89.21;102155.97;681826;28;1215;-52
2021/10/09 00:18:51;;;;;;;14.68;12.30;;;;;;;8.28;89.42;102160.22;681072;28;4802;-53
2021/10/09 00:19:13;;;;;;;13.43;12.03;;;;;;;8.31;89.87;102153.41;679579;29;1229;-53
2021/10/09 00:19:33;;;;;;;14.23;12.73;;;;;;;8.28;89.89;102155.00;679815;28;1263;-52
2021/10/09 00:19:54;;;;;;;15.30;13.03;;;;;;;8.25;90.12;102157.53;679471;28;1144;-58
2021/10/09 00:20:15;;;;;;;14.68;13.07;;;;;;;8.16;90.15;102156.44;679927;28;1113;-54
2021/10/09 00:20:35;;;;;;;14.82;12.93;;;;;;;8.22;89.93;102152.25;678737;29;1200;-53
2021/10/09 00:20:56;;;;;;;15.15;12.63;;;;;;;8.28;89.81;102147.19;679371;29;3951;-54
2021/10/09 00:21:16;;;;;;;14.37;12.77;;;;;;;8.38;89.76;102154.47;679437;29;1101;-56
2021/10/09 00:21:43;;;;;;;14.23;12.73;;;;;;;8.34;89.44;102157.81;679456;28;1468;-55
2021/10/09 00:22:03;;;;;;;14.52;13.02;;;;;;;8.20;90.23;102160.03;680358;28;4315;-52
2021/10/09 00:22:24;;;;;;;14.57;13.07;;;;;;;8.18;90.02;102160.00;682751;28;1506;-54
2021/10/09 00:22:44;;;;;;;15.10;13.30;;;;;;;8.25;90.59;102157.53;684061;28;1117;-56
2021/10/09 00:23:05;;;;;;;14.53;12.80;;;;;;;8.35;89.84;102155.25;684804;28;1307;-57
2021/10/09 00:23:25;;;;;;;15.07;12.40;;;;;;;8.42;89.84;102151.09;682097;28;1411;-53
2021/10/09 00:23:46;;;;;;;14.13;12.18;;;;;;;8.30;89.59;102155.97;679137;28;1273;-54
2021/10/09 00:24:06;;;;;;;14.63;12.37;;;;;;;8.28;90.07;102153.31;679108;29;1292;-56
2021/10/09 00:24:26;;;;;;;14.18;12.35;;;;;;;8.29;90.17;102154.19;679566;29;1145;-54
2021/10/09 00:24:47;;;;;;;14.03;12.57;;;;;;;8.33;89.46;102159.56;679548;28;2194;-56
2021/10/09 00:25:08;;;;;;;14.33;12.67;;;;;;;8.24;89.43;102154.06;675896;28;4343;-53
2021/10/09 00:25:29;;;;;;;14.07;12.57;;;;;;;8.21;90.06;102154.00;679313;28;1312;-56
2021/10/09 00:25:49;;;;;;;14.00;12.50;;;;;;;8.25;90.10;102152.34;682094;28;1125;-56
2021/10/09 00:26:10;;;;;;;14.50;12.85;;;;;;;8.22;90.41;102149.66;681712;28;1477;-52
2021/10/09 00:26:30;;;;;;;14.47;12.70;;;;;;;8.18;90.59;102157.38;681868;28;1165;-53
2021/10/09 00:26:50;;;;;;;14.83;12.87;;;;;;;8.17;90.43;102157.34;681780;28;1262;-55
2021/10/09 00:27:11;;;;;;;16.30;13.23;;;;;;;8.14;90.30;102152.91;684472;28;1196;-57
2021/10/09 00:27:32;;;;;;;15.43;13.05;;;;;;;8.10;91.03;102153.66;684675;28;1213;-56
2021/10/09 00:27:52;;;;;;;16.60;13.27;;;;;;;8.12;90.89;102159.78;683710;28;4406;-53
2021/10/09 00:28:13;;;;;;;15.15;12.57;;;;;;;8.18;91.05;102159.09;684333;28;1262;-54
2021/10/09 00:28:33;;;;;;;14.70;12.67;;;;;;;8.18;90.42;102157.38;684862;28;1480;-53
2021/10/09 00:28:53;;;;;;;14.57;13.07;;;;;;;8.16;90.55;102156.44;684833;28;1458;-55
2021/10/09 00:29:14;;;;;;;14.40;12.90;;;;;;;8.21;90.01;102158.28;684793;28;3431;-53
2021/10/09 00:29:35;;;;;;;15.13;13.05;;;;;;;8.33;89.66;102158.66;684086;28;1283;-56
2021/10/09 00:29:56;;;;;;;15.32;13.20;;;;;;;8.35;89.91;102159.59;684720;28;1261;-53
2021/10/09 00:30:16;;;;;;;14.93;12.90;;;;;;;8.41;89.57;102162.34;684339;28;1450;-55
2021/10/09 00:30:37;;;;;;;16.03;13.50;;;;;;;8.42;89.29;102161.53;681161;28;1284;-54
2021/10/09 00:30:57;;;;;;;15.52;13.15;;;;;;;8.41;88.56;102162.34;680109;28;4363;-55
2021/10/09 00:31:17;;;;;;;14.47;12.87;;;;;;;8.42;89.39;102156.31;680051;28;2024;-59
2021/10/09 00:31:38;;;;;;;15.30;13.10;;;;;;;8.40;89.10;102167.53;680359;28;1117;-53
2021/10/09 00:31:59;;;;;;;14.88;13.35;;;;;;;8.45;89.49;102156.41;680179;28;1394;-56
2021/10/09 00:32:19;;;;;;;14.43;12.93;;;;;;;8.55;89.06;102162.78;679894;28;1310;-53
2021/10/09 00:32:39;;;;;;;15.00;13.15;;;;;;;8.52;89.43;102160.09;679254;28;1329;-56
2021/10/09 00:33:00;;;;;;;16.13;13.73;;;;;;;8.42;89.55;102161.53;679915;29;1276;-54
2021/10/09 00:33:20;;;;;;;15.90;13.17;;;;;;;8.39;89.38;102164.06;678340;29;3421;-55
2021/10/09 00:33:41;;;;;;;15.73;13.20;;;;;;;8.42;89.61;102158.91;678071;28;1320;-55
2021/10/09 00:34:03;;;;;;;14.70;12.97;;;;;;;8.48;88.85;102160.84;673630;29;4423;-53
2021/10/09 00:34:24;;;;;;;15.50;12.75;;;;;;;8.58;88.76;102161.97;673869;29;1981;-55
2021/10/09 00:34:44;;;;;;;14.87;13.27;;;;;;;8.65;88.25;102159.59;677408;29;987;-54
2021/10/09 00:35:05;;;;;;;15.07;13.05;;;;;;;8.73;88.35;102159.78;674757;29;1215;-55
2021/10/09 00:35:25;;;;;;;14.98;12.75;;;;;;;8.81;87.93;102152.19;674455;29;1205;-57
2021/10/09 00:35:46;;;;;;;14.90;12.83;;;;;;;8.83;87.19;102158.28;674567;29;1008;-54
2021/10/09 00:36:06;;;;;;;15.30;13.45;;;;;;;8.68;87.31;102161.38;677568;29;1133;-56
2021/10/09 00:36:27;;;;;;;14.63;12.90;;;;;;;8.55;88.01;102154.94;679041;29;3195;-54
2021/10/09 00:36:47;;;;;;;15.45;13.63;;;;;;;8.44;88.73;102157.22;679574;28;3644;-53
2021/10/09 00:37:08;;;;;;;15.43;13.77;;;;;;;8.35;88.87;102156.97;683590;28;4654;-56
2021/10/09 00:37:28;;;;;;;15.23;13.63;;;;;;;8.27;89.43;102163.69;685420;28;1513;-53
2021/10/09 00:37:48;;;;;;;16.40;14.27;;;;;;;8.27;89.44;102161.97;684505;28;1180;-55
2021/10/09 00:38:09;;;;;;;15.30;13.48;;;;;;;8.39;89.14;102163.16;684736;28;1062;-55
2021/10/09 00:38:29;;;;;;;15.63;13.30;;;;;;;8.47;88.93;102159.06;684774;28;1314;-52
2021/10/09 00:38:49;;;;;;;15.10;13.33;;;;;;;8.58;88.84;102162.84;682160;28;1121;-57
2021/10/09 00:39:10;;;;;;;14.98;13.38;;;;;;;8.65;88.18;102154.38;681891;28;3555;-55
2021/10/09 00:39:30;;;;;;;15.80;13.30;;;;;;;8.61;88.55;102159.44;679948;29;1124;-56
2021/10/09 00:39:51;;;;;;;17.08;14.23;;;;;;;8.44;88.63;102159.81;678092;28;4366;-57
2021/10/09 00:40:11;;;;;;;17.27;14.70;;;;;;;8.29;89.18;102159.41;678438;28;1122;-56
2021/10/09 00:40:32;;;;;;;17.17;14.50;;;;;;;8.24;90.22;102160.97;678829;28;1167;-56
2021/10/09 00:40:52;;;;;;;17.60;15.13;;;;;;;8.21;90.37;102163.50;681621;28;1376;-52
2021/10/09 00:41:13;;;;;;;16.07;14.37;;;;;;;8.17;90.17;102163.41;682108;28;1120;-56
2021/10/09 00:41:34;;;;;;;16.70;14.93;;;;;;;8.19;90.16;102161.72;682198;28;1312;-56
2021/10/09 00:41:54;;;;;;;16.75;14.57;;;;;;;8.31;89.94;102160.34;682531;28;1094;-56
2021/10/09 00:42:15;;;;;;;16.50;14.07;;;;;;;8.43;89.35;102160.69;679523;28;1081;-56
2021/10/09 00:42:35;;;;;;;16.27;14.45;;;;;;;8.51;88.69;102159.22;678479;28;1491;-53
2021/10/09 00:42:55;;;;;;;16.20;14.40;;;;;;;8.58;88.31;102151.53;678662;28;4391;-53
2021/10/09 00:43:16;;;;;;;16.05;14.15;;;;;;;8.66;88.04;102155.25;676912;29;3490;-53
2021/10/09 00:43:36;;;;;;;16.17;13.93;;;;;;;8.75;87.56;102160.72;679070;28;1279;-55
2021/10/09 00:44:13;;;;;;;18.37;14.10;;;;;;;8.79;87.49;102148.63;679224;28;1156;-54
2021/10/09 00:44:36;;;;;;;16.70;14.82;;;;;;;8.66;88.10;102165.69;684036;28;1278;-57
2021/10/09 00:44:56;;;;;;;18.42;15.32;;;;;;;8.53;88.09;102159.25;684357;28;1337;-55
2021/10/09 00:45:17;;;;;;;17.95;15.52;;;;;;;8.44;88.98;102154.63;682545;28;1046;-56
2021/10/09 00:45:38;;;;;;;18.63;15.43;;;;;;;8.40;88.83;102159.72;679234;28;1030;-53
2021/10/09 00:45:58;;;;;;;17.80;14.90;;;;;;;8.41;89.63;102154.53;679194;28;5115;-56
2021/10/09 00:46:19;;;;;;;17.57;14.90;;;;;;;8.42;89.34;102164.13;679846;28;3477;-57
2021/10/09 00:46:41;;;;;;;18.92;14.77;;;;;;;8.40;89.29;102163.19;678616;28;1655;-57
2021/10/09 00:47:02;;;;;;;18.08;14.85;;;;;;;8.37;89.36;102159.63;679082;28;1228;-54
2021/10/09 00:47:24;;;;;;;18.25;15.85;;;;;;;8.27;90.37;102161.97;682142;28;1260;-52
2021/10/09 00:47:45;;;;;;;20.15;16.08;;;;;;;8.20;90.57;102154.81;681918;28;1287;-53
2021/10/09 00:48:05;;;;;;;18.10;15.27;;;;;;;8.14;90.75;102160.72;681436;28;1164;-56
2021/10/09 00:48:26;;;;;;;18.37;15.43;;;;;;;8.19;90.24;102163.47;681944;28;1160;-55
2021/10/09 00:48:47;;;;;;;18.75;15.23;;;;;;;8.28;89.59;102160.22;680944;28;1670;-57
2021/10/09 00:49:14;;;;;;;17.02;14.65;;;;;;;8.36;89.33;102161.34;681004;28;4727;-55
2021/10/09 00:49:35;;;;;;;16.83;14.20;;;;;;;8.44;88.39;102166.78;681780;28;3457;-54
2021/10/09 00:49:55;;;;;;;16.93;14.93;;;;;;;8.48;88.57;102155.63;681909;28;1322;-55
2021/10/09 00:50:16;;;;;;;18.50;15.05;;;;;;;8.52;88.01;102154.88;681474;28;1293;-55
2021/10/09 00:50:37;;;;;;;18.60;15.38;;;;;;;8.57;87.73;102155.00;679250;28;1190;-54
2021/10/09 00:50:57;;;;;;;18.50;15.33;;;;;;;8.60;87.80;102155.06;680104;28;1133;-56
2021/10/09 00:51:17;;;;;;;17.83;14.98;;;;;;;8.71;87.55;102158.88;675500;29;1153;-54
2021/10/09 00:51:38;;;;;;;18.80;15.53;;;;;;;8.69;88.01;102155.31;676256;29;1461;-55
2021/10/09 00:52:01;;;;;;;18.17;15.53;;;;;;;8.51;88.88;102158.31;677534;29;4321;-55
2021/10/09 00:52:25;;;;;;;18.77;15.68;;;;;;;8.45;89.20;102163.38;679927;28;1346;-57
2021/10/09 00:52:47;;;;;;;17.30;15.20;;;;;;;8.40;89.65;102160.56;680367;28;3504;-56
2021/10/09 00:53:08;;;;;;;19.92;16.02;;;;;;;8.42;89.20;102164.13;682204;28;1572;-53
2021/10/09 00:53:31;;;;;;;18.40;15.60;;;;;;;8.36;89.48;102158.72;684460;28;1214;-55
2021/10/09 00:53:52;;;;;;;17.58;15.27;;;;;;;8.34;88.98;102160.41;684201;28;1819;-57
2021/10/09 00:54:18;;;;;;;18.33;14.70;;;;;;;8.29;90.06;102162.00;682455;28;1946;-56
2021/10/09 00:54:44;;;;;;;18.45;15.80;;;;;;;8.18;90.77;102162.59;680004;28;1090;-55
2021/10/09 00:55:05;;;;;;;20.08;15.88;;;;;;;8.14;90.67;102160.72;674385;28;4428;-55
2021/10/09 00:55:27;;;;;;;19.58;15.02;;;;;;;8.26;89.94;102157.59;674574;29;1293;-57
2021/10/09 00:55:49;;;;;;;18.75;14.60;;;;;;;8.40;89.34;102162.31;676667;29;3250;-55
2021/10/09 00:56:11;;;;;;;17.92;14.38;;;;;;;8.46;88.74;102158.19;679252;29;3768;-55
2021/10/09 00:56:34;;;;;;;17.35;14.90;;;;;;;8.36;89.88;102158.72;679078;29;1217;-56
2021/10/09 00:56:57;;;;;;;18.08;15.43;;;;;;;8.21;89.55;102159.19;680225;28;1197;-55
2021/10/09 00:57:21;;;;;;;18.52;15.43;;;;;;;8.09;89.97;102159.72;679197;29;1224;-52
2021/10/09 00:57:44;;;;;;;18.13;15.43;;;;;;;8.04;89.94;102169.09;679628;29;1215;-54
2021/10/09 00:58:06;;;;;;;19.92;15.35;;;;;;;8.09;89.94;102162.31;678967;28;4352;-52
2021/10/09 00:58:29;;;;;;;19.60;14.80;;;;;;;8.21;89.19;102155.69;678888;29;1141;-55
2021/10/09 00:58:51;;;;;;;16.23;14.23;;;;;;;8.27;89.07;102151.53;676207;29;1210;-56
2021/10/09 00:59:12;;;;;;;17.88;15.10;;;;;;;8.22;89.57;102157.47;674880;29;3059;-56
2021/10/09 00:59:37;;;;;;;18.98;15.30;;;;;;;8.18;90.19;102152.16;673420;29;1324;-53
2021/10/09 01:00:01;;;;;;;18.25;15.30;;;;;;;8.04;89.80;102161.28;672163;29;1412;-57
2021/10/09 01:00:21;;;;;;;20.45;15.55;;;;;;;7.90;90.21;102155.66;674209;29;1481;-54
2021/10/09 01:00:42;;;;;;;18.83;15.20;;;;;;;7.92;89.96;102156.59;674987;29;1265;-56
2021/10/09 01:01:03;;;;;;;17.48;15.35;;;;;;;7.99;89.76;102158.56;677193;29;4356;-55
2021/10/09 01:01:24;;;;;;;17.48;15.13;;;;;;;8.08;89.80;102159.66;679361;28;1201;-56
2021/10/09 01:01:45;;;;;;;18.05;15.70;;;;;;;7.93;89.93;102160.94;681798;28;962;-54
2021/10/09 01:02:06;;;;;;;18.15;15.98;;;;;;;7.95;90.10;102161.03;681751;28;1248;-53
2021/10/09 01:02:27;;;;;;;17.33;14.80;;;;;;;7.96;90.21;102161.06;678117;29;3279;-53
2021/10/09 01:02:49;;;;;;;19.00;14.90;;;;;;;8.07;89.65;102160.50;674781;29;4133;-56
2021/10/09 01:03:10;;;;;;;17.55;15.07;;;;;;;8.08;89.67;102160.53;675432;29;1111;-55
2021/10/09 01:03:30;;;;;;;17.98;15.88;;;;;;;7.96;90.39;102152.34;675090;29;1350;-56
2021/10/09 01:03:52;;;;;;;18.13;15.60;;;;;;;7.86;91.52;102153.81;672555;29;4652;-54
2021/10/09 01:04:12;;;;;;;18.25;15.90;;;;;;;7.83;90.87;102157.19;674565;29;1351;-54
2021/10/09 01:04:34;;;;;;;18.43;15.47;;;;;;;7.78;91.28;102161.41;677854;29;1390;-53
2021/10/09 01:04:58;;;;;;;17.38;15.07;;;;;;;7.83;90.67;102159.78;679413;29;1110;-54
2021/10/09 01:05:20;;;;;;;17.83;14.90;;;;;;;7.84;90.48;102164.19;679513;28;1324;-52
2021/10/09 01:05:40;;;;;;;19.70;14.82;;;;;;;7.78;90.22;102156.19;677792;28;3310;-55
2021/10/09 01:06:02;;;;;;;17.20;14.85;;;;;;;7.66;91.24;102156.69;677628;29;1367;-53
2021/10/09 01:06:24;;;;;;;18.00;15.45;;;;;;;7.63;91.36;102150.50;681073;28;1136;-53
2021/10/09 01:06:45;;;;;;;18.75;15.52;;;;;;;7.60;91.54;102158.19;681701;28;1197;-54
2021/10/09 01:07:06;;;;;;;17.70;15.18;;;;;;;7.50;91.70;102159.63;681565;28;4341;-54
2021/10/09 01:07:27;;;;;;;18.93;15.07;;;;;;;7.41;91.69;102159.38;678889;29;1531;-54
2021/10/09 01:07:48;;;;;;;17.65;15.02;;;;;;;7.41;92.18;102155.03;676925;29;1260;-56
2021/10/09 01:08:08;;;;;;;16.80;15.00;;;;;;;7.61;92.23;102152.16;677063;28;1180;-55
2021/10/09 01:08:28;;;;;;;16.65;14.48;;;;;;;7.74;90.83;102156.94;675077;29;1296;-53
2021/10/09 01:08:49;;;;;;;16.20;14.25;;;;;;;7.86;91.13;102159.00;673010;29;3152;-55
2021/10/09 01:09:10;;;;;;;17.27;14.23;;;;;;;7.97;90.12;102154.13;676195;29;907;-56
2021/10/09 01:09:32;;;;;;;16.07;14.00;;;;;;;8.05;89.45;102150.03;676258;29;1540;-53
2021/10/09 01:09:53;;;;;;;16.48;14.07;;;;;;;8.11;89.03;102160.66;674730;29;4497;-56
2021/10/09 01:10:13;;;;;;;17.13;14.85;;;;;;;8.04;89.45;102155.19;674386;29;1311;-52
2021/10/09 01:10:34;;;;;;;17.83;15.13;;;;;;;7.88;89.65;102146.94;675141;29;1039;-54
2021/10/09 01:10:54;;;;;;;16.58;14.77;;;;;;;7.77;90.62;102154.41;676053;29;1508;-53
2021/10/09 01:11:15;;;;;;;17.63;15.18;;;;;;;7.70;90.66;102156.78;676569;29;1265;-55
2021/10/09 01:11:38;;;;;;;17.42;15.00;;;;;;;7.67;90.89;102152.38;675145;28;1477;-54
2021/10/09 01:12:00;;;;;;;17.98;15.32;;;;;;;7.71;90.88;102154.22;674658;29;1896;-58
2021/10/09 01:12:22;;;;;;;17.95;15.02;;;;;;;7.76;90.95;102146.56;673919;29;3441;-56
2021/10/09 01:12:42;;;;;;;17.80;14.33;;;;;;;7.86;90.27;102152.94;673586;29;1183;-57
2021/10/09 01:13:04;;;;;;;17.63;14.57;;;;;;;7.81;90.30;102152.81;673570;29;4497;-55
2021/10/09 01:13:25;;;;;;;18.70;14.93;;;;;;;7.76;90.11;102151.78;673118;29;1373;-54
2021/10/09 01:13:45;;;;;;;18.33;14.73;;;;;;;7.76;90.85;102155.25;669128;29;1291;-52
2021/10/09 01:14:07;;;;;;;17.92;15.05;;;;;;;7.81;90.07;102148.47;672448;29;1192;-52
2021/10/09 01:14:28;;;;;;;16.60;14.80;;;;;;;7.83;90.04;102149.38;675022;29;956;-53
2021/10/09 01:14:48;;;;;;;16.75;14.48;;;;;;;7.75;90.75;102152.59;676089;29;1051;-55
2021/10/09 01:15:21;;;;;;;18.97;15.47;;;;;;;7.64;90.95;102152.25;676887;28;1969;-54
2021/10/09 01:15:44;;;;;;;19.30;14.95;;;;;;;7.62;91.86;102154.81;680904;28;2314;-56
2021/10/09 01:16:18;;;;;;;17.30;14.95;;;;;;;7.77;90.78;102156.16;681156;28;5068;-52
2021/10/09 01:16:38;;;;;;;17.17;14.00;;;;;;;7.88;90.13;102153.84;680798;28;1404;-56
2021/10/09 01:17:00;;;;;;;17.83;14.70;;;;;;;7.97;89.93;102151.53;681939;28;2066;-55
2021/10/09 01:17:22;;;;;;;16.30;14.57;;;;;;;8.00;89.36;102162.03;679676;28;1407;-55
2021/10/09 01:17:42;;;;;;;16.48;13.98;;;;;;;8.05;89.06;102150.03;677583;28;1774;-54
2021/10/09 01:18:11;;;;;;;17.00;14.75;;;;;;;8.14;88.85;102155.53;675684;28;1351;-55
2021/10/09 01:18:37;;;;;;;17.70;14.80;;;;;;;8.16;88.96;102153.84;675354;29;3390;-55
2021/10/09 01:18:59;;;;;;;17.10;14.55;;;;;;;8.23;88.44;102154.03;672454;29;4498;-53
2021/10/09 01:19:20;;;;;;;16.75;14.60;;;;;;;8.24;88.22;102150.56;678864;29;1199;-53
2021/10/09 01:19:44;;;;;;;19.27;15.10;;;;;;;8.16;88.63;102153.84;678006;29;1261;-54
2021/10/09 01:20:10;;;;;;;17.13;14.93;;;;;;;8.13;88.78;102158.97;678140;29;1134;-53
2021/10/09 01:20:47;;;;;;;19.27;15.50;;;;;;;8.07;89.40;102156.19;673867;29;1216;-54
2021/10/09 01:21:08;;;;;;;17.08;15.27;;;;;;;8.05;88.94;102150.03;678017;29;1346;-57
2021/10/09 01:21:44;;;;;;;18.92;15.10;;;;;;;7.97;89.72;102156.75;676553;28;3356;-56
2021/10/09 01:22:05;;;;;;;19.23;15.48;;;;;;;7.95;89.76;102158.44;674570;28;4526;-53
2021/10/09 01:22:26;;;;;;;19.10;15.32;;;;;;;7.95;89.94;102148.00;675273;29;1296;-53
2021/10/09 01:22:47;;;;;;;18.08;15.68;;;;;;;7.87;90.47;102146.91;677791;28;1304;-56
2021/10/09 01:23:10;;;;;;;18.73;16.15;;;;;;;7.77;90.19;102156.16;673402;29;1309;-53
2021/10/09 01:23:35;;;;;;;19.15;15.90;;;;;;;7.76;90.24;102155.25;676095;29;1229;-53
2021/10/09 01:23:56;;;;;;;17.38;15.48;;;;;;;7.76;90.45;102149.16;676611;29;1617;-54
2021/10/09 01:24:19;;;;;;;18.75;15.98;;;;;;;7.75;90.81;102150.88;678457;29;1587;-54
2021/10/09 01:24:41;;;;;;;19.27;16.35;;;;;;;7.69;90.59;102145.47;678968;29;1394;-56
2021/10/09 01:25:04;;;;;;;18.95;15.55;;;;;;;7.61;91.34;102152.16;677810;28;4357;-54
2021/10/09 01:25:25;;;;;;;17.58;15.13;;;;;;;7.54;91.70;102151.09;675949;29;1532;-56
2021/10/09 01:25:47;;;;;;;18.57;15.93;;;;;;;7.48;91.80;102151.78;675954;29;1599;-55
2021/10/09 01:26:08;;;;;;;18.90;16.45;;;;;;;7.41;92.70;102149.81;674067;29;1444;-56
2021/10/09 01:26:29;;;;;;;19.02;16.38;;;;;;;7.39;91.95;102146.28;671376;29;1142;-53
2021/10/09 01:26:52;;;;;;;19.25;16.13;;;;;;;7.35;92.45;102143.53;671238;29;1561;-55
2021/10/09 01:27:18;;;;;;;20.17;16.25;;;;;;;7.36;91.78;102151.38;669565;29;1138;-54
2021/10/09 01:27:40;;;;;;;17.80;15.77;;;;;;;7.35;92.09;102151.34;673529;29;1437;-57
2021/10/09 01:28:01;;;;;;;18.38;15.77;;;;;;;7.32;92.53;102152.13;673410;29;4514;-55
2021/10/09 01:28:22;;;;;;;20.27;16.52;;;;;;;7.28;92.67;102147.66;674044;29;3309;-54
2021/10/09 01:28:50;;;;;;;20.07;16.73;;;;;;;7.25;92.79;102150.16;673704;29;1376;-57
2021/10/09 01:29:12;;;;;;;20.92;16.88;;;;;;;7.21;92.92;102146.56;674498;29;1244;-54
2021/10/09 01:29:36;;;;;;;19.05;15.88;;;;;;;7.27;92.97;102151.06;676453;29;1161;-55
2021/10/09 01:29:57;;;;;;;19.15;15.50;;;;;;;7.24;93.42;102156.19;675326;29;1435;-56
2021/10/09 01:30:17;;;;;;;19.67;16.03;;;;;;;7.16;93.49;102149.03;673719;29;1165;-56
2021/10/09 01:30:40;;;;;;;20.87;16.53;;;;;;;7.12;94.00;102154.94;670451;29;1209;-52
2021/10/09 01:31:01;;;;;;;20.05;16.80;;;;;;;7.06;93.80;102156.47;671942;29;4378;-56
2021/10/09 01:31:21;;;;;;;20.10;16.77;;;;;;;7.02;93.37;102154.59;671499;29;3189;-54
2021/10/09 01:31:43;;;;;;;19.33;16.58;;;;;;;6.97;93.64;102149.25;668453;29;2200;-55
2021/10/09 01:32:05;;;;;;;20.13;17.27;;;;;;;6.93;93.61;102145.63;668873;29;1704;-54
2021/10/09 01:32:26;;;;;;;20.52;17.08;;;;;;;6.93;94.08;102158.63;670178;29;1487;-55
2021/10/09 01:32:46;;;;;;;19.98;16.45;;;;;;;6.99;94.29;102152.75;670474;29;1301;-54
2021/10/09 01:33:08;;;;;;;18.88;15.90;;;;;;;7.01;93.71;102150.25;674501;29;1428;-54
2021/10/09 01:33:28;;;;;;;19.70;16.40;;;;;;;6.98;94.06;102148.41;673702;29;1098;-55
2021/10/09 01:33:49;;;;;;;20.20;16.45;;;;;;;7.00;94.08;102154.53;674977;28;4386;-55
2021/10/09 01:34:19;;;;;;;19.70;16.10;;;;;;;7.05;94.17;102153.00;680300;28;2194;-56
2021/10/09 01:34:40;;;;;;;19.40;16.15;;;;;;;7.08;93.43;102152.22;677683;28;1410;-53
2021/10/09 01:35:08;;;;;;;20.42;16.60;;;;;;;7.09;93.74;102151.34;677578;29;2184;-56
2021/10/09 01:35:29;;;;;;;19.10;16.02;;;;;;;7.21;93.30;102148.28;678873;28;2149;-55
2021/10/09 01:35:55;;;;;;;18.90;15.65;;;;;;;7.33;92.83;102151.28;679023;28;3499;-53
2021/10/09 01:36:22;;;;;;;17.63;14.80;;;;;;;7.33;91.58;102144.34;678289;29;2256;-56
2021/10/09 01:36:43;;;;;;;18.48;15.70;;;;;;;7.25;92.28;102147.56;674743;29;1426;-57
2021/10/09 01:37:04;;;;;;;19.20;16.25;;;;;;;7.19;92.40;102152.56;676614;29;4572;-55
2021/10/09 01:37:37;;;;;;;21.00;16.25;;;;;;;7.12;92.63;102151.47;676179;28;1253;-53
2021/10/09 01:37:57;;;;;;;20.58;16.65;;;;;;;7.07;92.41;102142.63;679453;28;1820;-55
2021/10/09 01:38:19;;;;;;;19.50;16.17;;;;;;;7.05;92.78;102153.00;681135;28;1221;-54
2021/10/09 01:38:40;;;;;;;19.45;16.42;;;;;;;7.04;92.42;102148.59;678951;28;1308;-56
2021/10/09 01:39:05;;;;;;;20.83;16.40;;;;;;;6.94;92.74;102147.41;676670;29;2645;-52
2021/10/09 01:39:42;;;;;;;19.25;15.95;;;;;;;6.82;93.30;102145.25;675803;29;1353;-53
2021/10/09 01:40:03;;;;;;;19.42;16.25;;;;;;;6.80;93.66;102148.69;678355;28;4499;-53
2021/10/09 01:40:26;;;;;;;19.40;16.67;;;;;;;6.78;93.68;102151.22;679412;28;1459;-52
2021/10/09 01:40:47;;;;;;;20.77;17.17;;;;;;;6.77;93.89;102148.53;680381;28;1432;-56
2021/10/09 01:41:08;;;;;;;22.02;17.00;;;;;;;6.77;93.95;102154.66;679847;28;1153;-53
2021/10/09 01:41:29;;;;;;;22.42;17.60;;;;;;;6.75;94.29;102150.22;679157;29;1547;-55
2021/10/09 01:41:50;;;;;;;20.50;17.10;;;;;;;6.71;94.54;102149.22;677463;29;1176;-55
2021/10/09 01:42:15;;;;;;;19.42;16.52;;;;;;;6.71;94.24;102156.16;678523;28;3801;-57
2021/10/09 01:42:38;;;;;;;20.63;17.23;;;;;;;6.78;94.37;102156.41;678685;28;1395;-56